createdAt,value
2023-03-18T00:01:14.861Z,28.98
2023-03-18T00:03:43.964Z,24.02
2023-03-18T00:06:15.892Z,24.65
2023-03-18T00:08:46.216Z,28.05
2023-03-18T00:11:16.667Z,28.52
2023-03-18T00:13:45.080Z,26.10
2023-03-18T00:16:15.679Z,30.52
2023-03-18T00:18:44.736Z,27.98
2023-03-18T00:21:13.202Z,25.83
2023-03-18T00:23:42.141Z,29.70
2023-03-18T00:26:11.976Z,32.30
2023-03-18T00:28:43.340Z,27.58
2023-03-18T00:31:14.263Z,26.48
2023-03-18T00:33:45.677Z,30.20
2023-03-18T00:36:16.541Z,27.95
2023-03-18T00:38:47.298Z,25.60
2023-03-18T00:43:52.632Z,31.33
2023-03-18T00:46:29.299Z,28.83
2023-03-18T00:49:00.994Z,27.63
2023-03-18T00:51:33.419Z,27.00
2023-03-18T00:54:06.640Z,28.65
2023-03-18T00:56:37.583Z,28.08
2023-03-18T00:59:07.228Z,28.95
2023-03-18T01:01:38.047Z,31.27
2023-03-18T01:06:37.463Z,35.13
2023-03-18T01:09:08.959Z,31.13
2023-03-18T01:11:37.969Z,30.90
2023-03-18T01:14:06.339Z,27.10
2023-03-18T01:16:36.171Z,26.27
2023-03-18T01:19:05.154Z,30.45
2023-03-18T01:21:34.076Z,27.00
2023-03-18T01:24:04.446Z,26.25
2023-03-18T01:26:34.924Z,26.33
2023-03-18T01:29:03.837Z,27.23
2023-03-18T01:31:34.707Z,28.15
2023-03-18T01:34:11.156Z,29.52
2023-03-18T01:36:46.357Z,29.02
2023-03-18T01:39:17.522Z,29.38
2023-03-18T01:41:46.339Z,30.42
2023-03-18T01:44:24.747Z,30.58
2023-03-18T01:46:56.852Z,27.63
2023-03-18T01:49:32.924Z,31.30
2023-03-18T01:52:08.132Z,27.10
2023-03-18T01:54:41.461Z,29.38
2023-03-18T01:57:10.006Z,28.63
2023-03-18T01:59:42.909Z,26.25
2023-03-18T02:02:14.701Z,28.67
2023-03-18T02:04:50.789Z,27.13
2023-03-18T02:07:22.650Z,26.88
2023-03-18T02:09:52.504Z,29.20
2023-03-18T02:12:25.755Z,26.65
2023-03-18T02:14:59.203Z,28.45
2023-03-18T02:17:31.038Z,29.10
2023-03-18T02:20:13.286Z,26.60
2023-03-18T02:22:46.504Z,26.40
2023-03-18T02:25:29.536Z,28.45
2023-03-18T02:28:03.373Z,29.10
2023-03-18T02:30:39.817Z,28.15
2023-03-18T02:33:11.846Z,33.72
2023-03-18T02:35:41.505Z,28.35
2023-03-18T02:38:10.036Z,27.00
2023-03-18T02:40:41.393Z,27.60
2023-03-18T02:43:25.112Z,28.70
2023-03-18T02:46:16.416Z,27.65
2023-03-18T02:48:47.764Z,30.85
2023-03-18T02:51:18.390Z,30.50
2023-03-18T02:53:48.700Z,29.80
2023-03-18T02:56:17.738Z,27.17
2023-03-18T02:58:48.331Z,26.15
2023-03-18T03:01:19.636Z,29.02
2023-03-18T03:03:48.047Z,26.70
2023-03-18T03:06:17.059Z,26.70
2023-03-18T03:08:45.912Z,28.48
2023-03-18T03:11:14.415Z,24.80
2023-03-18T03:13:45.367Z,28.02
2023-03-18T03:16:18.815Z,31.10
2023-03-18T03:18:47.795Z,25.85
2023-03-18T03:21:17.088Z,26.25
2023-03-18T03:23:47.761Z,24.70
2023-03-18T03:26:17.261Z,29.52
2023-03-18T03:28:46.005Z,27.08
2023-03-18T03:31:17.015Z,27.50
2023-03-18T03:33:45.710Z,23.58
2023-03-18T03:36:17.829Z,29.02
2023-03-18T03:38:46.655Z,25.10
2023-03-18T03:41:15.832Z,29.27
2023-03-18T03:43:45.578Z,26.38
2023-03-18T03:46:14.261Z,23.48
2023-03-18T03:48:44.854Z,26.35
2023-03-18T03:51:15.872Z,28.60
2023-03-18T03:53:46.252Z,23.70
2023-03-18T03:56:15.727Z,26.13
2023-03-18T03:58:44.771Z,25.13
2023-03-18T04:01:13.748Z,26.52
2023-03-18T04:03:44.457Z,27.48
2023-03-18T04:06:13.311Z,25.05
2023-03-18T04:08:48.215Z,27.30
2023-03-18T04:11:17.185Z,26.00
2023-03-18T04:13:45.770Z,25.83
2023-03-18T04:16:14.531Z,24.45
2023-03-18T04:18:44.395Z,25.98
2023-03-18T04:21:13.007Z,30.80
2023-03-18T04:23:46.444Z,25.25
2023-03-18T04:26:14.815Z,25.98
2023-03-18T04:28:43.774Z,25.35
2023-03-18T04:31:16.636Z,25.95
2023-03-18T04:33:46.547Z,24.88
2023-03-18T04:36:15.530Z,27.40
2023-03-18T04:38:44.656Z,31.73
2023-03-18T04:41:13.152Z,23.45
2023-03-18T04:43:41.678Z,23.75
2023-03-18T04:46:12.038Z,21.05
2023-03-18T04:48:40.915Z,22.45
2023-03-18T04:51:12.598Z,20.92
2023-03-18T04:53:42.097Z,18.65
2023-03-18T04:56:11.712Z,20.88
2023-03-18T04:58:47.477Z,24.10
2023-03-18T05:01:20.365Z,22.52
2023-03-18T05:03:49.287Z,18.20
2023-03-18T05:06:26.849Z,25.17
2023-03-18T05:09:07.453Z,22.52
2023-03-18T05:11:36.956Z,20.80
2023-03-18T05:14:31.837Z,22.55
2023-03-18T05:17:01.429Z,22.27
2023-03-18T05:19:31.587Z,22.45
2023-03-18T05:22:15.236Z,24.45
2023-03-18T05:24:46.043Z,24.42
2023-03-18T05:27:17.227Z,22.17
2023-03-18T05:29:49.807Z,24.42
2023-03-18T05:32:24.011Z,25.42
2023-03-18T05:34:58.255Z,24.30
2023-03-18T05:37:28.580Z,23.80
2023-03-18T05:40:04.172Z,25.15
2023-03-18T05:42:35.180Z,24.75
2023-03-18T05:45:08.450Z,27.42
2023-03-18T05:47:44.755Z,25.48
2023-03-18T05:50:15.029Z,23.48
2023-03-18T05:52:45.358Z,25.75
2023-03-18T05:55:20.518Z,27.30
2023-03-18T05:57:49.513Z,27.88
2023-03-18T06:00:20.332Z,24.65
2023-03-18T06:02:52.439Z,29.52
2023-03-18T06:05:21.111Z,27.13
2023-03-18T06:07:51.392Z,27.00
2023-03-18T06:12:50.609Z,25.17
2023-03-18T06:15:21.445Z,26.88
2023-03-18T06:17:50.573Z,23.02
2023-03-18T06:20:20.301Z,22.17
2023-03-18T06:22:50.592Z,24.23
2023-03-18T06:25:21.531Z,21.80
2023-03-18T06:27:50.887Z,24.40
2023-03-18T06:30:22.461Z,24.25
2023-03-18T06:32:51.237Z,25.33
2023-03-18T06:35:20.408Z,26.50
2023-03-18T06:37:50.377Z,24.95
2023-03-18T06:40:19.072Z,23.85
2023-03-18T06:42:49.017Z,25.48
2023-03-18T06:45:28.360Z,24.10
2023-03-18T06:48:01.833Z,25.50
2023-03-18T06:50:32.053Z,24.80
2023-03-18T06:53:02.383Z,26.42
2023-03-18T06:55:34.553Z,25.63
2023-03-18T06:58:05.522Z,28.15
2023-03-18T07:00:45.283Z,27.33
2023-03-18T07:03:19.028Z,27.10
2023-03-18T07:05:47.668Z,27.10
2023-03-18T07:08:17.629Z,28.90
2023-03-18T07:10:47.317Z,25.10
2023-03-18T07:13:17.093Z,25.50
2023-03-18T07:15:46.626Z,30.27
2023-03-18T07:18:15.685Z,24.60
2023-03-18T07:20:44.801Z,30.20
2023-03-18T07:23:13.501Z,24.45
2023-03-18T07:25:44.836Z,29.90
2023-03-18T07:28:13.262Z,27.02
2023-03-18T07:30:41.599Z,23.98
2023-03-18T07:33:10.453Z,25.15
2023-03-18T07:35:41.135Z,25.33
2023-03-18T07:38:10.583Z,26.73
2023-03-18T07:40:39.678Z,24.25
2023-03-18T07:43:09.730Z,21.25
2023-03-18T07:45:38.637Z,23.05
2023-03-18T07:48:07.641Z,24.38
2023-03-18T07:50:36.479Z,21.33
2023-03-18T07:53:04.871Z,26.20
2023-03-18T07:55:34.061Z,21.20
2023-03-18T07:58:04.693Z,22.33
2023-03-18T08:00:34.499Z,23.33
2023-03-18T08:03:03.951Z,21.97
2023-03-18T08:05:34.066Z,22.63
2023-03-18T08:08:04.429Z,21.30
2023-03-18T08:10:37.830Z,23.73
2023-03-18T08:13:11.926Z,23.13
2023-03-18T08:15:47.028Z,21.00
2023-03-18T08:18:15.848Z,21.33
2023-03-18T08:20:44.665Z,18.55
2023-03-18T08:23:13.300Z,25.85
2023-03-18T08:25:41.822Z,20.60
2023-03-18T08:28:11.741Z,21.60
2023-03-18T08:30:41.898Z,21.85
2023-03-18T08:33:11.112Z,20.35
2023-03-18T08:35:42.746Z,20.60
2023-03-18T08:38:11.258Z,21.25
2023-03-18T08:40:42.376Z,21.50
2023-03-18T08:43:10.934Z,24.17
2023-03-18T08:45:39.480Z,20.60
2023-03-18T08:48:09.736Z,24.67
2023-03-18T08:50:38.812Z,20.75
2023-03-18T08:53:07.205Z,21.42
2023-03-18T08:55:38.076Z,21.70
2023-03-18T08:58:07.550Z,20.38
2023-03-18T09:00:38.533Z,22.27
2023-03-18T09:03:08.892Z,24.13
2023-03-18T09:05:37.788Z,22.08
2023-03-18T09:08:06.937Z,24.77
2023-03-18T09:10:35.706Z,26.45
2023-03-18T09:13:05.588Z,25.08
2023-03-18T09:15:34.531Z,22.70
2023-03-18T09:18:11.982Z,23.50
2023-03-18T09:20:43.299Z,27.65
2023-03-18T09:23:13.410Z,24.95
2023-03-18T09:25:42.818Z,24.05
2023-03-18T09:28:11.303Z,21.58
2023-03-18T09:30:40.138Z,25.10
2023-03-18T09:33:09.400Z,22.58
2023-03-18T09:35:38.297Z,22.05
2023-03-18T09:38:08.180Z,24.80
2023-03-18T09:40:38.833Z,24.98
2023-03-18T09:46:00.027Z,30.60
2023-03-18T09:48:58.481Z,28.77
2023-03-18T09:51:42.582Z,29.17
2023-03-18T09:54:18.094Z,27.85
2023-03-18T09:56:47.046Z,28.23
2023-03-18T09:59:22.656Z,28.77
2023-03-18T10:01:55.296Z,26.50
2023-03-18T10:04:27.871Z,26.70
2023-03-18T10:07:02.783Z,29.63
2023-03-18T10:09:39.686Z,26.98
2023-03-18T10:12:17.904Z,27.35
2023-03-18T10:14:51.006Z,26.60
2023-03-18T10:17:22.805Z,26.48
2023-03-18T10:19:56.059Z,22.55
2023-03-18T10:22:51.804Z,25.52
2023-03-18T10:25:30.290Z,24.45
2023-03-18T10:28:26.042Z,25.13
2023-03-18T10:31:07.151Z,21.67
2023-03-18T10:33:47.426Z,21.90
2023-03-18T10:36:23.432Z,19.02
2023-03-18T10:38:55.151Z,18.75
2023-03-18T10:41:31.435Z,22.80
2023-03-18T10:44:04.891Z,21.02
2023-03-18T10:46:34.997Z,21.85
2023-03-18T10:49:08.267Z,22.52
2023-03-18T10:51:45.396Z,20.75
2023-03-18T10:54:22.637Z,22.80
2023-03-18T10:56:53.303Z,23.23
2023-03-18T11:01:56.850Z,21.97
2023-03-18T11:04:28.760Z,21.52
2023-03-18T11:07:00.809Z,22.63
2023-03-18T11:09:35.588Z,21.80
2023-03-18T11:12:08.050Z,22.35
2023-03-18T11:14:38.764Z,21.60
2023-03-18T11:19:41.802Z,25.58
2023-03-18T11:25:06.129Z,21.38
2023-03-18T11:27:42.669Z,22.77
2023-03-18T11:30:33.040Z,26.98
2023-03-18T11:33:17.483Z,22.42
2023-03-18T11:35:51.822Z,23.77
2023-03-18T11:38:28.843Z,20.17
2023-03-18T11:41:08.593Z,23.40
2023-03-18T11:43:39.649Z,23.63
2023-03-18T11:46:11.100Z,24.08
2023-03-18T11:48:42.608Z,24.45
2023-03-18T11:51:38.092Z,26.38
2023-03-18T11:54:44.324Z,23.23
2023-03-18T11:57:17.736Z,24.92
2023-03-18T12:00:07.312Z,25.23
2023-03-18T12:03:18.130Z,23.35
2023-03-18T12:06:05.515Z,20.88
2023-03-18T12:08:51.323Z,21.58
2023-03-18T12:11:33.563Z,19.75
2023-03-18T12:14:12.347Z,19.40
2023-03-18T12:16:59.531Z,17.33
2023-03-18T12:19:50.974Z,17.23
2023-03-18T12:22:42.349Z,19.63
2023-03-18T12:25:33.088Z,16.58
2023-03-18T12:28:09.851Z,16.33
2023-03-18T12:30:56.269Z,14.80
2023-03-18T12:33:42.984Z,14.52
2023-03-18T12:36:22.817Z,13.82
2023-03-18T12:39:56.749Z,13.73
2023-03-18T12:42:40.695Z,12.43
2023-03-18T12:45:13.071Z,9.88
2023-03-18T12:47:48.027Z,9.63
2023-03-18T12:50:21.142Z,11.75
2023-03-18T12:52:56.173Z,9.77
2023-03-18T12:55:29.237Z,8.45
2023-03-18T12:58:01.331Z,10.23
2023-03-18T13:00:36.265Z,7.95
2023-03-18T13:03:19.168Z,7.25
2023-03-18T13:05:53.469Z,8.43
2023-03-18T13:08:54.170Z,8.45
2023-03-18T13:11:50.752Z,10.38
2023-03-18T13:14:27.739Z,9.00
2023-03-18T13:16:58.510Z,9.63
2023-03-18T13:19:27.309Z,11.55
2023-03-18T13:22:07.944Z,12.63
2023-03-18T13:24:54.092Z,13.45
2023-03-18T13:27:52.151Z,13.15
2023-03-18T13:30:30.888Z,13.70
2023-03-18T13:33:24.187Z,13.85
2023-03-18T13:36:23.582Z,14.63
2023-03-18T13:39:25.683Z,12.32
2023-03-18T13:42:19.763Z,11.50
2023-03-18T13:44:57.713Z,10.43
2023-03-18T13:47:31.173Z,10.18
2023-03-18T13:50:03.786Z,8.77
2023-03-18T13:52:42.765Z,9.65
2023-03-18T13:55:28.085Z,6.18
2023-03-18T13:57:59.138Z,8.90
2023-03-18T14:00:33.567Z,5.80
2023-03-18T14:03:23.152Z,6.38
2023-03-18T14:05:54.242Z,7.53
2023-03-18T14:08:50.041Z,9.27
2023-03-18T14:11:50.362Z,6.88
2023-03-18T14:15:09.355Z,7.03
2023-03-18T14:17:49.476Z,9.55
2023-03-18T14:20:39.508Z,9.95
2023-03-18T14:23:42.834Z,9.90
2023-03-18T14:26:22.872Z,9.75
2023-03-18T14:28:58.762Z,8.93
2023-03-18T14:31:35.080Z,7.20
2023-03-18T14:34:24.256Z,6.63
2023-03-18T14:37:21.461Z,8.23
2023-03-18T14:39:53.818Z,9.90
2023-03-18T14:42:39.017Z,7.22
2023-03-18T14:45:20.604Z,8.45
2023-03-18T14:47:52.814Z,8.43
2023-03-18T14:50:35.647Z,11.35
2023-03-18T14:53:12.295Z,9.15
2023-03-18T14:55:41.317Z,6.97
2023-03-18T14:58:17.518Z,8.00
2023-03-18T15:00:49.945Z,9.75
2023-03-18T15:03:24.318Z,10.57
2023-03-18T15:05:56.786Z,8.80
2023-03-18T15:08:44.568Z,10.95
2023-03-18T15:11:16.449Z,8.27
2023-03-18T15:13:45.225Z,11.02
2023-03-18T15:16:19.850Z,8.48
2023-03-18T15:18:54.983Z,9.43
2023-03-18T15:21:27.616Z,8.82
2023-03-18T15:23:59.527Z,8.60
2023-03-18T15:26:32.610Z,8.52
2023-03-18T15:29:04.372Z,8.73
2023-03-18T15:31:44.322Z,9.40
2023-03-18T15:34:20.374Z,9.30
2023-03-18T15:36:54.866Z,10.25
2023-03-18T15:39:34.003Z,7.85
2023-03-18T15:42:03.489Z,8.07
2023-03-18T15:44:36.091Z,8.27
2023-03-18T15:47:17.037Z,7.22
2023-03-18T15:49:52.834Z,7.22
2023-03-18T15:52:25.153Z,8.63
2023-03-18T15:54:53.608Z,8.45
2023-03-18T15:57:31.689Z,9.00
2023-03-18T16:00:00.268Z,8.60
2023-03-18T16:02:31.604Z,7.18
2023-03-18T16:05:15.909Z,7.43
2023-03-18T16:07:44.359Z,7.53
2023-03-18T16:10:18.417Z,7.18
2023-03-18T16:12:48.925Z,6.47
2023-03-18T16:15:22.208Z,7.55
2023-03-18T16:17:53.692Z,6.85
2023-03-18T16:20:26.041Z,8.48
2023-03-18T16:22:55.653Z,8.40
2023-03-18T16:25:25.286Z,6.78
2023-03-18T16:27:57.720Z,7.05
2023-03-18T16:30:28.341Z,9.80
2023-03-18T16:32:59.350Z,8.20
2023-03-18T16:35:32.647Z,8.32
2023-03-18T16:38:02.351Z,7.38
2023-03-18T16:40:32.769Z,5.50
2023-03-18T16:43:01.208Z,7.47
2023-03-18T16:45:32.305Z,8.25
2023-03-18T16:48:06.671Z,7.22
2023-03-18T16:50:38.558Z,6.85
2023-03-18T16:53:17.299Z,7.28
2023-03-18T16:55:47.467Z,7.10
2023-03-18T16:58:19.483Z,8.95
2023-03-18T17:00:49.881Z,6.82
2023-03-18T17:03:21.208Z,7.07
2023-03-18T17:05:52.036Z,10.82
2023-03-18T17:08:22.097Z,9.57
2023-03-18T17:10:53.843Z,7.82
2023-03-18T17:13:25.964Z,7.32
2023-03-18T17:15:55.042Z,10.32
2023-03-18T17:18:27.911Z,11.00
2023-03-18T17:20:57.107Z,5.80
2023-03-18T17:23:28.684Z,9.35
2023-03-18T17:26:00.285Z,9.55
2023-03-18T17:28:34.500Z,8.88
2023-03-18T17:31:03.499Z,7.82
2023-03-18T17:33:37.238Z,5.15
2023-03-18T17:36:08.137Z,9.00
2023-03-18T17:38:37.251Z,11.07
2023-03-18T17:41:15.624Z,11.88
2023-03-18T17:43:44.037Z,7.80
2023-03-18T17:46:12.428Z,8.55
2023-03-18T17:48:42.338Z,9.80
2023-03-18T17:51:16.757Z,9.48
2023-03-18T17:53:49.445Z,7.63
2023-03-18T17:56:20.387Z,8.38
2023-03-18T17:58:51.552Z,8.63
2023-03-18T18:01:22.335Z,8.20
2023-03-18T18:03:52.598Z,15.18
2023-03-18T18:06:23.356Z,10.95
2023-03-18T18:08:51.955Z,8.35
2023-03-18T18:11:22.955Z,11.27
2023-03-18T18:13:53.376Z,8.68
2023-03-18T18:16:24.159Z,6.68
2023-03-18T18:18:54.092Z,7.57
2023-03-18T18:21:26.090Z,10.25
2023-03-18T18:23:54.521Z,10.68
2023-03-18T18:26:23.023Z,8.90
2023-03-18T18:28:53.392Z,9.23
2023-03-18T18:31:24.151Z,8.98
2023-03-18T18:33:56.066Z,8.65
2023-03-18T18:36:28.010Z,9.52
2023-03-18T18:38:56.704Z,10.88
2023-03-18T18:41:25.883Z,12.95
2023-03-18T18:43:55.561Z,8.90
2023-03-18T18:46:25.014Z,8.97
2023-03-18T18:48:54.938Z,10.15
2023-03-18T18:51:25.919Z,10.73
2023-03-18T18:53:55.552Z,9.45
2023-03-18T18:56:35.266Z,10.55
2023-03-18T18:59:18.054Z,10.33
2023-03-18T19:01:46.415Z,10.65
2023-03-18T19:04:17.067Z,12.00
2023-03-18T19:09:19.163Z,9.05
2023-03-18T19:11:49.466Z,6.68
2023-03-18T19:14:24.577Z,7.25
2023-03-18T19:16:55.603Z,6.03
2023-03-18T19:19:29.903Z,6.80
2023-03-18T19:21:58.908Z,8.40
2023-03-18T19:24:30.445Z,9.20
2023-03-18T19:27:02.575Z,9.75
2023-03-18T19:29:31.264Z,9.90
2023-03-18T19:32:01.374Z,8.57
2023-03-18T19:34:32.297Z,9.82
2023-03-18T19:37:02.711Z,8.85
2023-03-18T19:39:31.801Z,9.77
2023-03-18T19:42:00.242Z,15.07
2023-03-18T19:44:28.724Z,9.60
2023-03-18T19:47:01.097Z,10.25
2023-03-18T19:49:36.317Z,11.10
2023-03-18T19:52:17.522Z,11.35
2023-03-18T19:54:50.346Z,12.40
2023-03-18T19:57:20.779Z,10.88
2023-03-18T19:59:50.131Z,12.65
2023-03-18T20:02:22.927Z,10.82
2023-03-18T20:04:55.124Z,10.68
2023-03-18T20:07:25.863Z,14.18
2023-03-18T20:12:27.578Z,12.15
2023-03-18T20:14:56.159Z,9.63
2023-03-18T20:17:36.792Z,12.75
2023-03-18T20:20:08.863Z,15.07
2023-03-18T20:22:41.059Z,13.85
2023-03-18T20:25:18.820Z,13.10
2023-03-18T20:27:48.559Z,11.75
2023-03-18T20:30:30.205Z,11.02
2023-03-18T20:33:00.015Z,12.98
2023-03-18T20:35:32.347Z,13.35
2023-03-18T20:38:05.503Z,11.88
2023-03-18T20:40:34.181Z,10.70
2023-03-18T20:43:03.005Z,11.77
2023-03-18T20:45:31.761Z,9.32
2023-03-18T20:48:00.273Z,10.88
2023-03-18T20:50:30.866Z,12.55
2023-03-18T20:52:59.458Z,10.70
2023-03-18T20:55:31.849Z,10.25
2023-03-18T20:58:01.899Z,11.63
2023-03-18T21:00:33.273Z,10.75
2023-03-18T21:03:04.188Z,11.80
2023-03-18T21:05:34.472Z,15.55
2023-03-18T21:08:03.269Z,10.82
2023-03-18T21:10:31.739Z,15.07
2023-03-18T21:13:00.380Z,12.02
2023-03-18T21:15:29.448Z,9.77
2023-03-18T21:17:58.337Z,10.00
2023-03-18T21:20:31.577Z,13.63
2023-03-18T21:23:02.353Z,12.50
2023-03-18T21:25:30.832Z,11.77
2023-03-18T21:27:59.205Z,12.38
2023-03-18T21:30:27.698Z,12.50
2023-03-18T21:32:56.287Z,10.82
2023-03-18T21:35:26.957Z,9.57
2023-03-18T21:37:55.610Z,8.63
2023-03-18T21:40:26.516Z,10.00
2023-03-18T21:42:55.154Z,8.13
2023-03-18T21:45:24.732Z,7.82
2023-03-18T21:47:53.527Z,9.02
2023-03-18T21:50:24.166Z,7.60
2023-03-18T21:55:22.380Z,8.23
2023-03-18T21:57:52.346Z,9.98
2023-03-18T22:00:22.387Z,9.55
2023-03-18T22:02:51.657Z,8.02
2023-03-18T22:05:23.034Z,8.05
2023-03-18T22:07:52.548Z,7.63
2023-03-18T22:10:23.963Z,8.90
2023-03-18T22:12:53.891Z,11.48
2023-03-18T22:15:36.822Z,8.38
2023-03-18T22:18:06.301Z,9.45
2023-03-18T22:20:35.851Z,9.70
2023-03-18T22:23:16.372Z,9.88
2023-03-18T22:25:46.620Z,8.95
2023-03-18T22:28:16.852Z,10.05
2023-03-18T22:30:51.772Z,8.38
2023-03-18T22:33:24.574Z,8.57
2023-03-18T22:35:53.340Z,9.27
2023-03-18T22:38:23.664Z,10.73
2023-03-18T22:40:55.012Z,11.52
2023-03-18T22:43:34.776Z,10.02
2023-03-18T22:46:05.988Z,11.10
2023-03-18T22:48:34.920Z,9.38
2023-03-18T22:51:04.506Z,9.63
2023-03-18T22:53:37.013Z,9.90
2023-03-18T22:56:11.381Z,11.07
2023-03-18T22:58:41.431Z,12.07
2023-03-18T23:01:12.941Z,11.57
2023-03-18T23:03:43.894Z,15.02
2023-03-18T23:06:16.851Z,12.52
2023-03-18T23:08:46.594Z,12.27
2023-03-18T23:11:15.255Z,12.53
2023-03-18T23:13:49.842Z,12.75
2023-03-18T23:16:20.394Z,12.43
2023-03-18T23:18:49.362Z,12.95
2023-03-18T23:21:19.228Z,13.18
2023-03-18T23:23:47.712Z,13.77
2023-03-18T23:26:16.282Z,13.45
2023-03-18T23:28:46.997Z,15.38
2023-03-18T23:33:44.738Z,15.68
2023-03-18T23:36:13.667Z,15.75
2023-03-18T23:38:42.085Z,16.92
2023-03-18T23:41:10.763Z,15.85
2023-03-18T23:43:39.077Z,15.40
2023-03-18T23:46:09.325Z,16.10
2023-03-18T23:48:37.772Z,16.08
2023-03-18T23:51:06.490Z,15.15
2023-03-18T23:53:34.859Z,15.85
2023-03-18T23:56:05.404Z,15.68
2023-03-18T23:58:33.970Z,16.60
